Loda, Illinois
Current Conditions -  °F | °C
As of 11:35 PM on Monday 26 Jan 2015 (Local Time) from KTIP Reporting Station
Haze Haze  
Wind Chill: 26°   Ceiling: 300
Heat Index: 31°   Visibility: 4mi
Dew Point: 30°   Wind: 5mph
Humidity: 96%   Direction: 170°S
Pressure: 29.89"   Gusts: NA
Location:  40.52°N, 88.07°W
Report Text: KTIP 270535Z AUTO 17004KT 4SM BR OVC003 M01/M01 A2989 RMK AO2 T10061011
Loading
Personal Weather Stations






























Interactive Weather Map New forecast layout! Learn more

10-Day Weather Forecast

Advertisements
Track Severe Weather on mobile